Time;durP1;ratioP1;P1;durP2;ratioP2;P2;SDS_P1;SDS_P2;PMS_P1;PMS_P2;Temp;Humidity;BMP_temperature;BMP_pressure;BME280_temperature;BME280_humidity;BME280_pressure;Samples;Min_cycle;Max_cycle;Signal;HPM_P1;HPM_P2
2022/03/24 00:00:23;;;;;;;38.33;24.08;;;;;;;3.61;100.00;101854.78;5039572;28;20040;-58
2022/03/24 00:02:48;;;;;;;33.30;25.27;;;;;;;3.57;100.00;101866.91;5037464;28;20919;-58
2022/03/24 00:05:14;;;;;;;33.47;24.90;;;;;;;3.44;100.00;101851.28;5033972;28;20055;-58
2022/03/24 00:07:41;;;;;;;41.88;24.75;;;;;;;3.56;100.00;101870.34;5032874;28;20024;-58
2022/03/24 00:10:07;;;;;;;31.63;23.98;;;;;;;3.52;100.00;101871.19;5033688;28;20056;-58
2022/03/24 00:12:34;;;;;;;38.78;25.35;;;;;;;3.33;100.00;101843.44;5031216;28;20036;-58
2022/03/24 00:15:01;;;;;;;30.80;23.42;;;;;;;3.38;100.00;101864.25;5029825;28;20028;-58
2022/03/24 00:17:26;;;;;;;35.67;25.45;;;;;;;3.29;100.00;101852.09;5030450;28;20044;-58
2022/03/24 00:19:51;;;;;;;34.58;25.63;;;;;;;3.29;100.00;101851.22;5031944;28;20144;-58
2022/03/24 00:22:17;;;;;;;37.83;26.35;;;;;;;3.41;100.00;101861.66;5032336;28;20056;-58
2022/03/24 00:24:42;;;;;;;29.55;24.00;;;;;;;3.32;100.00;101846.03;5034196;28;20859;-58
2022/03/24 00:27:09;;;;;;;36.63;26.83;;;;;;;3.27;100.00;101832.19;5033779;28;20825;-58
2022/03/24 00:29:34;;;;;;;37.65;25.48;;;;;;;3.20;100.00;101827.84;5029337;28;20990;-58
2022/03/24 00:31:59;;;;;;;36.95;26.52;;;;;;;3.35;100.00;101859.03;5031066;28;20032;-58
2022/03/24 00:34:25;;;;;;;36.40;26.25;;;;;;;3.28;100.00;101849.50;5030551;28;20863;-59
2022/03/24 00:36:50;;;;;;;42.50;27.83;;;;;;;3.31;100.00;101855.53;5031154;28;20494;-59
2022/03/24 00:39:15;;;;;;;40.83;25.95;;;;;;;3.12;100.00;101827.81;5028259;28;20032;-59
2022/03/24 00:41:42;;;;;;;37.72;26.67;;;;;;;3.22;100.00;101844.28;5028170;28;20907;-59
2022/03/24 00:44:07;;;;;;;47.10;27.27;;;;;;;2.76;100.00;101781.81;5032058;28;20834;-58
2022/03/24 00:46:33;;;;;;;47.25;27.17;;;;;;;3.21;100.00;101847.75;5029265;28;20222;-59
2022/03/24 00:48:59;;;;;;;37.38;26.10;;;;;;;3.24;100.00;101858.16;5029749;28;20036;-59
2022/03/24 00:51:24;;;;;;;39.33;25.88;;;;;;;3.03;100.00;101820.88;5030017;28;20032;-59
2022/03/24 00:53:49;;;;;;;38.38;26.70;;;;;;;3.02;100.00;101832.09;5028781;28;20110;-59
2022/03/24 00:56:15;;;;;;;35.17;23.70;;;;;;;3.00;100.00;101849.41;5028281;28;20887;-59
2022/03/24 00:58:40;;;;;;;39.33;25.50;;;;;;;2.96;100.00;101847.66;5030064;28;20061;-58
2022/03/24 01:01:11;;;;;;;39.97;27.02;;;;;;;2.91;100.00;101853.66;5028716;28;20851;-58
2022/03/24 01:03:36;;;;;;;36.95;27.35;;;;;;;2.88;100.00;101851.94;5028703;28;20028;-59
2022/03/24 01:06:03;;;;;;;35.90;26.30;;;;;;;2.85;100.00;101849.34;5028694;28;20036;-58
2022/03/24 01:08:29;;;;;;;36.03;26.25;;;;;;;2.76;100.00;101838.91;5027974;28;20063;-58
2022/03/24 01:10:55;;;;;;;37.03;27.08;;;;;;;2.74;100.00;101848.41;5027539;28;20932;-58
2022/03/24 01:13:21;;;;;;;38.55;28.13;;;;;;;2.66;100.00;101836.25;5028741;28;20121;-59
2022/03/24 01:15:47;;;;;;;35.60;27.25;;;;;;;2.67;100.00;101849.22;5028744;28;20056;-59
2022/03/24 01:18:14;;;;;;;38.70;26.77;;;;;;;2.39;100.00;101816.22;5029612;28;20802;-58
2022/03/24 01:20:40;;;;;;;40.92;26.08;;;;;;;2.61;100.00;101844.00;5028560;28;20025;-58
2022/03/24 01:23:05;;;;;;;38.75;28.40;;;;;;;2.57;100.00;101837.94;5027857;28;20956;-59
2022/03/24 01:25:31;;;;;;;38.63;27.80;;;;;;;2.60;100.00;101842.31;5027302;28;20033;-59
2022/03/24 01:27:56;;;;;;;45.30;29.20;;;;;;;2.57;100.00;101842.25;5028472;28;20029;-59
2022/03/24 01:30:22;;;;;;;40.28;28.20;;;;;;;2.51;100.00;101843.09;5030129;28;20135;-59
2022/03/24 01:32:47;;;;;;;38.50;29.48;;;;;;;2.47;100.00;101848.25;5029441;28;20028;-59
2022/03/24 01:35:14;;;;;;;38.95;27.00;;;;;;;2.43;100.00;101838.75;5027629;28;20032;-58
2022/03/24 01:37:40;;;;;;;39.83;28.17;;;;;;;2.40;100.00;101833.53;5027934;28;20879;-58
2022/03/24 01:40:08;;;;;;;42.33;29.27;;;;;;;2.39;100.00;101836.97;5027415;28;20451;-58
2022/03/24 01:42:34;;;;;;;36.65;27.88;;;;;;;2.27;100.00;101832.56;5026341;28;20064;-58
2022/03/24 01:45:00;;;;;;;41.70;27.02;;;;;;;2.24;100.00;101827.34;5029085;28;20040;-59
2022/03/24 01:47:26;;;;;;;45.55;29.23;;;;;;;2.16;100.00;101838.56;5029644;28;20041;-59
2022/03/24 01:49:53;;;;;;;43.55;30.80;;;;;;;2.17;100.00;101829.88;5027593;28;20024;-59
2022/03/24 01:52:19;;;;;;;39.45;27.58;;;;;;;2.18;100.00;101816.09;5029495;28;20128;-58
2022/03/24 01:54:48;;;;;;;52.97;28.98;;;;;;;2.21;100.00;101831.66;5029653;28;20866;-58
2022/03/24 01:57:15;;;;;;;43.03;29.15;;;;;;;2.13;100.00;101830.75;5027452;28;20033;-59
2022/03/24 01:59:41;;;;;;;44.40;29.02;;;;;;;2.16;100.00;101833.38;5028568;28;20032;-58
2022/03/24 02:02:10;;;;;;;44.55;30.08;;;;;;;2.18;100.00;101821.28;5027113;28;20037;-59
2022/03/24 02:04:36;;;;;;;47.25;28.85;;;;;;;2.23;100.00;101832.56;5027973;28;20460;-59
2022/03/24 02:07:02;;;;;;;40.67;28.13;;;;;;;2.22;100.00;101823.03;5026383;28;20037;-59
2022/03/24 02:09:28;;;;;;;42.92;29.23;;;;;;;2.20;100.00;101820.41;5030004;28;20028;-58
2022/03/24 02:11:54;;;;;;;47.85;31.25;;;;;;;2.26;100.00;101822.19;5026531;28;20916;-59
2022/03/24 02:14:19;;;;;;;42.13;29.65;;;;;;;2.26;100.00;101817.00;5027224;28;20454;-59
2022/03/24 02:16:48;;;;;;;40.83;28.77;;;;;;;2.19;100.00;101818.69;5026446;28;20020;-58
2022/03/24 02:19:18;;;;;;;47.88;31.55;;;;;;;2.10;100.00;101817.75;5026491;28;20089;-59
2022/03/24 02:21:45;;;;;;;39.63;28.70;;;;;;;2.05;100.00;101820.31;5026450;28;20032;-59
2022/03/24 02:24:12;;;;;;;39.63;28.75;;;;;;;2.06;100.00;101817.72;5026111;28;20036;-58
2022/03/24 02:26:40;;;;;;;45.05;31.60;;;;;;;1.97;100.00;101817.66;5027579;28;20966;-58
2022/03/24 02:29:06;;;;;;;46.55;30.92;;;;;;;1.68;100.00;101769.94;5026561;28;20039;-58
2022/03/24 02:31:37;;;;;;;46.15;32.38;;;;;;;1.60;100.00;101763.81;5025898;28;20043;-58
2022/03/24 02:36:47;;;;;;;50.60;30.98;;;;;;;1.87;100.00;101815.84;5026737;28;20080;-59
2022/03/24 02:39:12;;;;;;;50.58;31.77;;;;;;;1.81;100.00;101814.94;5025854;28;20052;-59
2022/03/24 02:41:51;;;;;;;51.88;31.45;;;;;;;1.70;100.00;101801.91;5027605;28;20036;-59
2022/03/24 02:44:22;;;;;;;47.80;31.30;;;;;;;1.75;100.00;101810.59;5030371;28;20554;-58
2022/03/24 02:46:49;;;;;;;50.83;31.65;;;;;;;1.73;100.00;101817.47;5026053;28;20037;-59
2022/03/24 02:49:16;;;;;;;40.95;29.00;;;;;;;1.74;100.00;101814.03;5025860;28;20131;-59
2022/03/24 02:51:42;;;;;;;46.78;32.05;;;;;;;1.75;100.00;101823.53;5026503;28;20020;-58
2022/03/24 02:54:08;;;;;;;42.72;30.05;;;;;;;1.77;100.00;101819.22;5027669;28;20033;-59
2022/03/24 02:56:34;;;;;;;44.42;31.00;;;;;;;1.70;100.00;101809.66;5025734;28;20056;-59
2022/03/24 02:59:00;;;;;;;43.45;28.10;;;;;;;1.66;100.00;101826.03;5026025;28;20038;-58
2022/03/24 03:01:25;;;;;;;51.92;31.10;;;;;;;1.40;100.00;101786.97;5027795;28;20033;-59
2022/03/24 03:03:54;;;;;;;47.78;33.17;;;;;;;1.31;100.00;101773.06;5024329;28;20854;-59
2022/03/24 03:06:20;;;;;;;49.97;33.05;;;;;;;1.65;100.00;101819.13;5026475;28;20035;-59
2022/03/24 03:08:49;;;;;;;47.00;30.33;;;;;;;1.66;100.00;101823.44;5025778;28;20914;-59
2022/03/24 03:11:20;;;;;;;46.83;31.80;;;;;;;1.55;100.00;101812.13;5027185;28;20029;-59
2022/03/24 03:13:46;;;;;;;45.03;30.60;;;;;;;1.55;100.00;101817.31;5025726;28;20033;-59
2022/03/24 03:16:12;;;;;;;41.53;29.95;;;;;;;1.50;100.00;101818.97;5025699;28;20032;-59
2022/03/24 03:18:39;;;;;;;48.40;31.05;;;;;;;1.46;100.00;101823.25;5025053;28;20017;-59
2022/03/24 03:21:04;;;;;;;48.58;30.10;;;;;;;1.45;100.00;101823.25;5026999;28;20055;-59
2022/03/24 03:23:30;;;;;;;48.95;30.20;;;;;;;1.44;100.00;101811.16;5026281;28;20879;-59
2022/03/24 03:25:56;;;;;;;43.67;30.73;;;;;;;1.48;100.00;101820.69;5027446;28;20817;-59
2022/03/24 03:28:22;;;;;;;48.30;31.33;;;;;;;1.44;100.00;101826.69;5027314;28;20140;-59
2022/03/24 03:30:47;;;;;;;40.45;30.13;;;;;;;1.34;100.00;101811.91;5027379;28;20802;-59
2022/03/24 03:33:13;;;;;;;47.22;30.30;;;;;;;1.29;100.00;101813.56;5025298;28;20758;-58
2022/03/24 03:35:39;;;;;;;43.35;30.50;;;;;;;1.35;100.00;101824.03;5026669;28;20029;-59
2022/03/24 03:38:04;;;;;;;45.53;32.33;;;;;;;1.36;100.00;101820.56;5025827;28;20039;-58
2022/03/24 03:40:30;;;;;;;48.38;31.33;;;;;;;1.38;100.00;101824.06;5026017;28;20031;-59
2022/03/24 03:42:56;;;;;;;44.33;32.20;;;;;;;1.40;100.00;101817.16;5024729;28;20032;-59
2022/03/24 03:45:21;;;;;;;39.33;30.63;;;;;;;1.27;100.00;101802.34;5025857;28;20021;-59
2022/03/24 03:47:47;;;;;;;49.92;33.00;;;;;;;1.38;100.00;101821.47;5026056;28;20089;-59
2022/03/24 03:50:12;;;;;;;46.13;31.60;;;;;;;1.40;100.00;101830.97;5028377;28;20790;-59
2022/03/24 03:52:38;;;;;;;50.55;32.25;;;;;;;1.32;100.00;101827.44;5026499;28;20036;-59
2022/03/24 03:55:04;;;;;;;57.20;33.30;;;;;;;1.32;100.00;101834.34;5026764;28;20029;-58
2022/03/24 03:57:30;;;;;;;47.17;32.30;;;;;;;1.23;100.00;101816.09;5023777;28;20223;-58
2022/03/24 03:59:55;;;;;;;48.65;32.75;;;;;;;0.87;100.00;101752.78;5025566;28;20039;-59
2022/03/24 04:02:20;;;;;;;44.85;32.63;;;;;;;1.30;100.00;101825.69;5026917;28;20956;-59
2022/03/24 04:04:46;;;;;;;42.00;31.77;;;;;;;1.29;100.00;101824.81;5024567;28;20320;-59
2022/03/24 04:07:12;;;;;;;59.92;33.80;;;;;;;1.32;100.00;101826.59;5025907;28;20044;-59
2022/03/24 04:09:38;;;;;;;53.22;34.88;;;;;;;1.37;100.00;101820.59;5027235;28;20039;-59
2022/03/24 04:12:04;;;;;;;48.53;32.45;;;;;;;1.21;100.00;101794.53;5025681;28;20064;-59
2022/03/24 04:14:29;;;;;;;56.88;32.20;;;;;;;1.32;100.00;101824.84;5032883;28;20039;-59
2022/03/24 04:16:58;;;;;;;47.53;32.00;;;;;;;1.23;100.00;101823.88;5025585;28;20032;-59
2022/03/24 04:19:25;;;;;;;48.88;34.20;;;;;;;1.14;100.00;101818.59;5040761;28;20912;-58
2022/03/24 04:21:51;;;;;;;50.70;33.28;;;;;;;1.11;100.00;101831.50;5024763;28;20232;-59
2022/03/24 04:24:16;;;;;;;52.05;34.53;;;;;;;0.87;100.00;101808.81;5024916;28;20916;-58
2022/03/24 04:26:42;;;;;;;41.15;31.95;;;;;;;0.88;100.00;101821.75;5024801;28;20025;-58
2022/03/24 04:29:07;;;;;;;55.38;34.97;;;;;;;0.92;100.00;101828.69;5036059;28;20035;-58
2022/03/24 04:31:33;;;;;;;51.38;36.03;;;;;;;0.90;100.00;101820.06;5033942;28;20024;-59
2022/03/24 04:33:58;;;;;;;55.65;35.17;;;;;;;0.91;100.00;101826.97;5034077;28;20028;-59
2022/03/24 04:36:23;;;;;;;56.60;34.90;;;;;;;0.85;100.00;101821.72;5031322;28;21002;-58
2022/03/24 04:38:49;;;;;;;66.45;36.42;;;;;;;0.82;100.00;101831.16;5028933;28;20052;-58
2022/03/24 04:41:14;;;;;;;60.17;37.90;;;;;;;0.81;100.00;101829.44;5029310;28;20038;-59
2022/03/24 04:43:40;;;;;;;51.50;35.35;;;;;;;0.88;100.00;101829.50;5029541;28;20024;-61
2022/03/24 04:46:05;;;;;;;56.72;38.22;;;;;;;0.93;100.00;101830.44;5030531;28;20037;-58
2022/03/24 04:48:36;;;;;;;55.05;37.08;;;;;;;0.90;100.00;101827.81;5029009;28;20036;-58
2022/03/24 04:51:03;;;;;;;56.83;37.80;;;;;;;0.89;100.00;101839.03;5027937;28;20097;-59
2022/03/24 04:53:29;;;;;;;50.10;37.20;;;;;;;0.86;100.00;101831.22;5027459;28;20150;-61
2022/03/24 04:55:55;;;;;;;50.10;38.10;;;;;;;0.83;100.00;101828.59;5029361;28;20029;-58
2022/03/24 04:58:20;;;;;;;63.03;39.92;;;;;;;0.80;100.00;101833.75;5027202;28;20899;-59
2022/03/24 05:00:45;;;;;;;57.03;38.47;;;;;;;0.64;100.00;101805.06;5028274;28;20035;-59
2022/03/24 05:03:11;;;;;;;62.45;39.97;;;;;;;0.75;100.00;101824.16;5027957;28;20024;-59
2022/03/24 05:05:36;;;;;;;59.28;40.88;;;;;;;0.76;100.00;101829.38;5028512;28;20889;-59
2022/03/24 05:08:03;;;;;;;60.75;39.72;;;;;;;0.79;100.00;101831.13;5027873;28;20025;-58
2022/03/24 05:10:29;;;;;;;60.92;35.38;;;;;;;0.76;100.00;101838.84;5027388;28;20952;-58
2022/03/24 05:12:55;;;;;;;68.90;39.20;;;;;;;0.72;100.00;101834.47;5027047;28;20035;-58
2022/03/24 05:15:20;;;;;;;65.07;41.03;;;;;;;0.69;100.00;101832.72;5027711;28;20139;-58
2022/03/24 05:17:46;;;;;;;59.13;39.50;;;;;;;0.73;100.00;101834.50;5027297;28;20043;-58
2022/03/24 05:20:11;;;;;;;58.05;40.95;;;;;;;0.71;100.00;101812.91;5029063;28;20035;-58
2022/03/24 05:22:37;;;;;;;62.47;39.38;;;;;;;0.89;100.00;101836.44;5027182;28;20872;-58
2022/03/24 05:25:03;;;;;;;55.63;38.97;;;;;;;0.68;100.00;101807.69;5027544;28;20085;-58
2022/03/24 05:27:29;;;;;;;55.45;37.67;;;;;;;0.83;100.00;101838.94;5027052;28;20062;-58
2022/03/24 05:29:54;;;;;;;59.17;37.53;;;;;;;0.74;100.00;101832.78;5029309;28;20126;-58
2022/03/24 05:32:20;;;;;;;55.08;38.60;;;;;;;0.75;100.00;101832.78;5028633;28;20441;-58
2022/03/24 05:34:46;;;;;;;60.72;37.70;;;;;;;0.74;100.00;101837.97;5027559;28;20038;-58
2022/03/24 05:37:13;;;;;;;54.58;36.88;;;;;;;0.66;100.00;101832.69;5027845;28;20463;-58
2022/03/24 05:39:38;;;;;;;54.47;36.58;;;;;;;0.74;100.00;101838.84;5027028;28;20886;-58
2022/03/24 05:42:04;;;;;;;52.03;38.70;;;;;;;0.53;100.00;101799.75;5025593;28;20151;-58
2022/03/24 05:44:30;;;;;;;51.28;37.97;;;;;;;0.39;100.00;101783.19;5028727;28;20024;-58
2022/03/24 05:46:56;;;;;;;56.05;38.45;;;;;;;0.71;100.00;101841.34;5028144;28;20880;-58
2022/03/24 05:49:21;;;;;;;56.88;38.00;;;;;;;0.69;100.00;101835.31;5028086;28;20028;-58
2022/03/24 05:51:47;;;;;;;75.28;43.17;;;;;;;0.69;100.00;101842.19;5028235;28;20845;-58
2022/03/24 05:54:15;;;;;;;67.35;43.60;;;;;;;0.69;100.00;101845.66;5028626;28;20035;-58
2022/03/24 05:56:42;;;;;;;58.42;40.65;;;;;;;0.72;100.00;101845.69;5028452;28;20078;-58
2022/03/24 05:59:08;;;;;;;66.45;42.80;;;;;;;0.70;100.00;101837.06;5029302;28;20016;-58
2022/03/24 06:01:34;;;;;;;64.43;43.20;;;;;;;0.81;100.00;101840.63;5028837;28;20033;-58
2022/03/24 06:04:00;;;;;;;57.72;40.78;;;;;;;0.87;100.00;101845.91;5029473;28;20035;-58
2022/03/24 06:06:26;;;;;;;68.10;39.28;;;;;;;0.85;100.00;101834.66;5028033;28;20084;-58
2022/03/24 06:08:53;;;;;;;52.05;38.70;;;;;;;0.77;100.00;101823.34;5028114;28;20049;-58
2022/03/24 06:11:19;;;;;;;63.78;39.88;;;;;;;0.94;100.00;101842.53;5027217;28;20899;-58
2022/03/24 06:13:46;;;;;;;56.17;39.00;;;;;;;1.02;100.00;101843.47;5028316;28;20074;-58
2022/03/24 06:16:13;;;;;;;57.08;38.38;;;;;;;1.10;100.00;101845.31;5028379;28;20025;-59
2022/03/24 06:18:39;;;;;;;62.88;40.65;;;;;;;1.19;100.00;101850.56;5028065;28;20147;-59
2022/03/24 06:21:05;;;;;;;67.05;43.72;;;;;;;1.26;100.00;101844.63;5028210;28;20373;-59
2022/03/24 06:23:30;;;;;;;70.95;41.53;;;;;;;1.11;100.00;101795.28;5028290;28;20064;-59
2022/03/24 06:25:56;;;;;;;64.40;41.30;;;;;;;1.51;100.00;101836.25;5028548;28;20032;-59
2022/03/24 06:28:21;;;;;;;63.38;41.35;;;;;;;1.60;100.00;101828.56;5028525;28;20024;-58
2022/03/24 06:30:47;;;;;;;62.80;42.00;;;;;;;1.82;100.00;101832.22;5028005;28;20052;-59
2022/03/24 06:33:13;;;;;;;64.25;38.45;;;;;;;2.11;100.00;101845.41;5041428;28;20633;-59
2022/03/24 06:35:39;;;;;;;66.03;38.45;;;;;;;2.18;100.00;101836.81;5025752;28;20033;-58
2022/03/24 06:38:04;;;;;;;57.95;37.17;;;;;;;2.31;100.00;101844.69;5025701;28;20131;-59
2022/03/24 06:40:29;;;;;;;55.33;36.47;;;;;;;2.28;100.00;101820.47;5026147;28;20098;-59
2022/03/24 06:42:55;;;;;;;51.50;35.55;;;;;;;2.49;100.00;101836.16;5025982;28;20948;-59
2022/03/24 06:45:21;;;;;;;58.58;37.47;;;;;;;2.66;100.00;101831.94;5027456;28;20141;-59
2022/03/24 06:47:46;;;;;;;58.20;38.28;;;;;;;2.77;100.00;101840.63;5026994;28;20043;-59
2022/03/24 06:50:13;;;;;;;52.90;38.13;;;;;;;2.98;100.00;101850.25;5025167;28;20059;-59
2022/03/24 06:52:42;;;;;;;54.10;36.65;;;;;;;3.11;100.00;101848.59;5025144;28;20472;-58
2022/03/24 06:55:09;;;;;;;50.90;34.92;;;;;;;3.30;100.00;101852.97;5025279;28;20028;-59
2022/03/24 06:57:36;;;;;;;54.17;36.15;;;;;;;3.43;100.00;101846.94;5027298;28;20846;-58
2022/03/24 07:00:02;;;;;;;48.35;35.58;;;;;;;3.57;100.00;101847.84;5025779;28;20025;-58
2022/03/24 07:02:28;;;;;;;54.55;37.75;;;;;;;3.70;100.00;101846.97;5027824;28;20054;-59
2022/03/24 07:04:54;;;;;;;58.33;40.78;;;;;;;3.85;100.00;101848.75;5026700;28;20769;-59
2022/03/24 07:07:20;;;;;;;71.20;44.33;;;;;;;3.98;100.00;101853.94;5026393;28;20028;-59
2022/03/24 07:09:45;;;;;;;61.33;41.47;;;;;;;4.19;100.00;101854.81;5026124;28;20052;-59
2022/03/24 07:12:11;;;;;;;61.55;38.92;;;;;;;4.10;100.00;101814.03;5025431;28;20039;-59
2022/03/24 07:14:37;;;;;;;52.15;37.38;;;;;;;4.36;100.00;101821.84;5026565;28;20075;-59
2022/03/24 07:17:04;;;;;;;53.45;39.45;;;;;;;4.42;100.00;101801.00;5027321;28;20864;-59
2022/03/24 07:19:29;;;;;;;59.05;36.85;;;;;;;4.93;100.00;101860.72;5026857;28;20043;-59
2022/03/24 07:21:55;;;;;;;46.90;34.95;;;;;;;5.25;100.00;101859.69;5025470;28;20036;-58
2022/03/24 07:24:20;;;;;;;56.17;36.42;;;;;;;5.50;100.00;101866.53;5027028;28;20033;-58
2022/03/24 07:26:46;;;;;;;55.60;35.15;;;;;;;5.74;100.00;101866.38;5025488;28;20776;-59
2022/03/24 07:29:11;;;;;;;49.95;32.33;;;;;;;5.91;100.00;101861.94;5025545;28;20198;-59
2022/03/24 07:31:37;;;;;;;43.15;30.98;;;;;;;6.18;100.00;101874.72;5025659;28;20028;-58
2022/03/24 07:34:03;;;;;;;52.03;31.23;;;;;;;6.45;100.00;101883.22;5026381;28;20029;-58
2022/03/24 07:36:29;;;;;;;40.17;30.52;;;;;;;6.67;100.00;101874.28;5025169;28;20035;-59
2022/03/24 07:38:55;;;;;;;46.10;31.77;;;;;;;6.83;100.00;101875.84;5025645;28;20820;-59
2022/03/24 07:41:21;;;;;;;52.67;30.20;;;;;;;6.96;100.00;101866.97;5021752;28;20082;-59
2022/03/24 07:43:47;;;;;;;44.53;28.38;;;;;;;7.08;100.00;101876.44;5009795;28;20030;-59
2022/03/24 07:46:13;;;;;;;48.38;29.52;;;;;;;7.22;100.00;101860.56;5004984;28;20039;-58
2022/03/24 07:48:38;;;;;;;49.67;30.75;;;;;;;7.42;100.00;101866.41;5003892;28;20128;-59
2022/03/24 07:51:05;;;;;;;39.67;30.95;;;;;;;7.54;100.00;101871.47;5009853;28;20080;-59
2022/03/24 07:53:39;;;;;;;46.55;30.90;;;;;;;7.74;100.00;101869.41;5024737;28;20114;-59
2022/03/24 07:56:05;;;;;;;38.88;27.05;;;;;;;7.88;100.00;101877.94;5024769;28;20082;-59
2022/03/24 07:58:31;;;;;;;47.80;30.65;;;;;;;7.96;100.00;101881.31;5027274;28;20038;-59
2022/03/24 08:00:57;;;;;;;58.53;29.08;;;;;;;7.86;100.00;101844.81;5025879;28;20036;-59
2022/03/24 08:03:23;;;;;;;42.40;29.65;;;;;;;8.18;100.00;101877.44;5025771;28;20942;-59
2022/03/24 08:05:49;;;;;;;42.60;30.02;;;;;;;7.88;100.00;101812.50;5029540;28;20025;-59
2022/03/24 08:08:15;;;;;;;40.08;29.52;;;;;;;8.40;100.00;101879.72;5044446;28;20020;-60
2022/03/24 08:10:42;;;;;;;45.13;30.40;;;;;;;8.49;100.00;101874.31;5027856;28;20083;-59
2022/03/24 08:13:09;;;;;;;41.45;29.15;;;;;;;8.63;100.00;101885.41;5028332;28;20879;-59
2022/03/24 08:15:36;;;;;;;44.17;28.10;;;;;;;8.76;100.00;101884.31;5015766;28;20024;-59
2022/03/24 08:18:04;;;;;;;39.72;28.98;;;;;;;8.90;100.00;101890.16;5011627;28;20892;-59
2022/03/24 08:20:30;;;;;;;39.40;28.58;;;;;;;9.05;100.00;101883.75;5028583;28;20032;-59
2022/03/24 08:22:55;;;;;;;43.05;30.25;;;;;;;9.14;100.00;101879.19;5027750;28;20071;-59
2022/03/24 08:25:21;;;;;;;44.65;28.13;;;;;;;9.45;100.00;101889.03;5027872;28;20090;-59
2022/03/24 08:27:46;;;;;;;48.90;31.13;;;;;;;9.67;100.00;101892.88;5028325;28;20800;-59
2022/03/24 08:30:12;;;;;;;46.45;30.27;;;;;;;9.90;100.00;101890.59;5028624;28;20028;-59
2022/03/24 08:32:38;;;;;;;38.10;29.98;;;;;;;10.11;100.00;101890.09;5032023;28;20027;-59
2022/03/24 08:35:04;;;;;;;47.28;31.63;;;;;;;10.22;93.58;101901.25;5029102;28;20044;-59
2022/03/24 08:37:30;;;;;;;41.63;31.73;;;;;;;10.35;95.23;101887.78;5026881;28;20024;-59
2022/03/24 08:39:56;;;;;;;39.10;30.30;;;;;;;10.32;94.09;101853.72;5030024;28;20195;-59
2022/03/24 08:42:21;;;;;;;37.55;29.05;;;;;;;10.56;90.38;101892.50;5029683;28;20052;-59
2022/03/24 08:44:46;;;;;;;43.17;29.77;;;;;;;10.61;89.47;101877.50;5028602;28;20811;-59
2022/03/24 08:47:12;;;;;;;45.85;30.98;;;;;;;10.75;88.47;101891.09;5030650;28;20827;-59
2022/03/24 08:49:37;;;;;;;38.08;29.58;;;;;;;10.85;85.54;101889.94;5027795;28;20946;-59
2022/03/24 08:52:03;;;;;;;44.70;29.85;;;;;;;10.79;85.59;101855.94;5027144;28;20045;-59
2022/03/24 08:54:28;;;;;;;43.40;29.23;;;;;;;11.05;83.62;101890.25;5027631;28;20032;-59
2022/03/24 08:56:54;;;;;;;41.47;27.30;;;;;;;11.08;83.21;101874.41;5027591;28;20784;-59
2022/03/24 08:59:19;;;;;;;41.88;30.08;;;;;;;11.40;81.54;101906.81;5030600;28;20859;-59
2022/03/24 09:01:44;;;;;;;39.38;28.17;;;;;;;11.54;81.16;101894.09;5027693;28;20024;-59
2022/03/24 09:04:10;;;;;;;39.88;28.98;;;;;;;11.67;81.01;101900.72;5028236;28;20036;-59
2022/03/24 09:06:39;;;;;;;39.97;28.50;;;;;;;11.76;80.99;101900.50;5044493;28;20929;-59
2022/03/24 09:09:05;;;;;;;38.88;29.70;;;;;;;11.82;81.48;101905.56;5026923;28;20933;-59
2022/03/24 09:11:31;;;;;;;38.85;29.00;;;;;;;11.84;80.04;101903.72;5027952;28;20937;-59
2022/03/24 09:13:56;;;;;;;45.80;29.95;;;;;;;11.93;78.41;101903.44;5026850;28;20135;-59
2022/03/24 09:16:22;;;;;;;40.75;28.42;;;;;;;12.05;79.47;101912.72;5027604;28;20951;-59
2022/03/24 09:18:48;;;;;;;45.88;28.70;;;;;;;11.88;75.67;101857.97;5027827;28;20025;-59
2022/03/24 09:21:14;;;;;;;39.55;27.05;;;;;;;12.22;76.02;101906.00;5027583;28;20136;-59
2022/03/24 09:23:39;;;;;;;36.17;28.42;;;;;;;12.24;76.43;101903.31;5027805;28;20178;-59
2022/03/24 09:26:05;;;;;;;36.88;26.92;;;;;;;12.33;75.00;101912.72;5027214;28;20046;-59
2022/03/24 09:28:31;;;;;;;31.55;25.15;;;;;;;12.37;74.80;101914.34;5028996;28;20135;-59
2022/03/24 09:30:57;;;;;;;35.47;26.08;;;;;;;12.46;72.87;101909.63;5028276;28;20195;-59
2022/03/24 09:33:23;;;;;;;33.97;27.20;;;;;;;12.62;71.54;101909.94;5027651;28;20028;-59
2022/03/24 09:35:50;;;;;;;43.35;27.48;;;;;;;12.81;72.14;101916.28;5027398;28;20031;-59
2022/03/24 09:38:16;;;;;;;33.60;25.83;;;;;;;12.95;71.43;101915.81;5027046;28;20032;-59
2022/03/24 09:40:42;;;;;;;39.88;27.42;;;;;;;12.84;69.67;101874.00;5027404;28;20032;-59
2022/03/24 09:43:07;;;;;;;35.75;27.23;;;;;;;13.18;68.75;101914.09;5027035;28;20043;-59
2022/03/24 09:45:33;;;;;;;39.15;27.92;;;;;;;13.20;69.20;101903.50;5027131;28;20095;-59
2022/03/24 09:47:58;;;;;;;34.08;25.52;;;;;;;13.26;68.47;101888.28;5042586;28;20029;-59
2022/03/24 09:50:26;;;;;;;38.75;25.52;;;;;;;13.41;69.52;101901.84;5028010;28;20036;-59
2022/03/24 09:52:52;;;;;;;35.90;24.50;;;;;;;13.35;65.59;101886.22;5027438;28;21046;-59
2022/03/24 09:55:18;;;;;;;39.40;27.77;;;;;;;13.41;65.30;101870.16;5042303;28;20033;-59
2022/03/24 09:57:45;;;;;;;42.08;26.13;;;;;;;13.71;66.25;101913.88;5046194;28;20052;-59
2022/03/24 10:00:11;;;;;;;39.45;28.85;;;;;;;13.58;64.40;101873.00;5028037;28;20131;-59
2022/03/24 10:02:36;;;;;;;38.00;27.85;;;;;;;13.91;64.92;101906.03;5026286;28;20036;-59
2022/03/24 10:05:04;;;;;;;41.75;25.77;;;;;;;14.03;63.95;101908.16;5026071;28;20024;-59
2022/03/24 10:07:46;;;;;;;35.08;26.05;;;;;;;14.12;62.80;101899.88;5025943;28;20331;-59
2022/03/24 10:10:25;;;;;;;31.88;24.58;;;;;;;14.29;57.39;101905.34;5025977;28;20028;-59
2022/03/24 10:12:51;;;;;;;38.85;24.40;;;;;;;14.00;57.94;101836.91;5025613;28;20037;-59
2022/03/24 10:15:16;;;;;;;24.35;18.95;;;;;;;14.50;53.09;101903.59;5025266;28;20198;-59
2022/03/24 10:17:50;;;;;;;31.65;19.35;;;;;;;14.52;53.49;101895.59;5025065;28;20039;-59
2022/03/24 10:20:16;;;;;;;29.02;19.77;;;;;;;14.60;53.13;101896.97;5024296;28;20398;-59
2022/03/24 10:22:57;;;;;;;31.75;19.65;;;;;;;14.70;51.92;101897.47;5024334;28;20912;-59
2022/03/24 10:25:25;;;;;;;29.00;20.85;;;;;;;14.82;52.57;101900.44;5025522;28;20033;-59
2022/03/24 10:28:11;;;;;;;25.40;17.63;;;;;;;14.51;53.02;101820.66;5024412;28;20249;-59
2022/03/24 10:30:47;;;;;;;27.52;18.10;;;;;;;15.10;51.03;101900.09;5025765;28;20183;-59
2022/03/24 10:33:45;;;;;;;28.75;18.48;;;;;;;15.20;51.05;101901.38;5025514;28;20052;-58
2022/03/24 10:36:15;;;;;;;30.70;19.65;;;;;;;15.26;50.19;101894.94;5027716;28;20039;-59
2022/03/24 10:38:51;;;;;;;24.08;16.00;;;;;;;15.29;50.66;101885.06;5027632;28;20032;-59
2022/03/24 10:41:20;;;;;;;27.52;17.02;;;;;;;15.44;49.85;101893.25;5026910;28;20039;-59
2022/03/24 10:43:49;;;;;;;23.08;14.23;;;;;;;15.18;49.50;101837.03;5026784;28;20058;-58
2022/03/24 10:46:19;;;;;;;23.77;15.75;;;;;;;15.58;50.26;101896.16;5026248;28;20026;-59
2022/03/24 10:48:49;;;;;;;30.08;17.52;;;;;;;15.68;48.76;101881.53;5026342;28;20113;-59
2022/03/24 10:51:28;;;;;;;22.42;15.77;;;;;;;15.78;51.17;101882.81;5026723;28;20035;-59
2022/03/24 10:54:10;;;;;;;28.70;15.75;;;;;;;15.82;50.46;101881.69;5025609;28;20037;-59
2022/03/24 10:56:41;;;;;;;21.05;13.60;;;;;;;15.99;51.90;101873.78;5027457;28;20029;-59
2022/03/24 10:59:06;;;;;;;18.27;13.95;;;;;;;16.13;47.73;101889.03;5043322;28;20036;-59
2022/03/24 11:01:32;;;;;;;21.77;14.32;;;;;;;16.21;49.13;101882.44;5025409;28;20070;-59
2022/03/24 11:03:58;;;;;;;27.65;15.60;;;;;;;16.28;47.11;101888.28;5026858;28;20040;-59
2022/03/24 11:06:23;;;;;;;24.20;16.88;;;;;;;16.31;47.39;101891.66;5025472;28;20064;-59
2022/03/24 11:08:54;;;;;;;21.90;17.05;;;;;;;16.33;46.92;101884.44;5026442;28;20040;-59